CDT,Max TemperatureF,Mean TemperatureF,Min TemperatureF,Max Dew PointF,MeanDew PointF,Min DewpointF,Max Humidity, Mean Humidity, Min Humidity, Max Sea Level PressureIn, Mean Sea Level PressureIn, Min Sea Level PressureIn, Max VisibilityMiles, Mean VisibilityMiles, Min VisibilityMiles, Max Wind SpeedMPH, Mean Wind SpeedMPH, Max Gust SpeedMPH,PrecipitationIn, CloudCover, Events, WindDirDegrees
2014-4-1,24,18,10,15,11,7,88,80,65,30.19,29.84,29.57,10,5,0,26,20,34,0.04,5,Fog-Snow,327
2014-4-2,37,21,6,25,13,3,92,65,37,30.26,30.20,30.11,10,9,2,12,4,,0.00,1,Snow,113
2014-4-3,33,30,28,28,26,20,93,80,61,30.17,30.01,29.91,10,6,1,12,8,,0.02,8,Snow,68
2014-4-4,39,32,24,26,23,19,96,72,45,30.06,29.97,29.87,10,10,7,16,9,25,0.00,5,Snow,345
2014-4-5,48,34,21,36,27,20,96,82,58,30.05,29.97,29.89,10,10,8,17,7,,0.00,1,,170
2014-4-6,55,40,27,37,31,26,100,84,49,29.88,29.83,29.79,10,6,0,14,3,,0.00,2,Fog,316
2014-4-7,54,42,32,45,35,27,100,85,38,29.91,29.82,29.77,10,5,0,16,5,25,0.09,5,Fog-Rain,322
2014-4-8,50,39,30,30,27,23,92,70,41,30.06,29.98,29.90,10,10,10,17,10,24,0.00,4,,318
2014-4-9,69,53,37,46,34,28,70,54,34,29.88,29.61,29.40,10,10,10,21,12,31,0.00,2,Rain,212
2014-4-10,57,44,34,31,26,20,82,52,26,29.91,29.77,29.63,10,10,10,25,15,36,0.00,2,,290
2014-4-11,57,44,33,35,30,26,89,56,36,29.96,29.93,29.89,10,10,10,20,8,25,0.00,3,,289
2014-4-12,48,41,36,39,37,31,100,86,62,29.96,29.84,29.76,10,10,7,15,8,26,0.36,7,Rain,102
2014-4-13,39,34,26,37,24,12,97,76,55,30.14,29.98,29.78,10,10,10,24,12,32,0.00,7,,333
2014-4-14,30,22,15,13,7,1,81,55,34,30.21,30.16,30.07,10,10,3,22,15,31,0.00,3,Snow,333
2014-4-15,33,20,8,7,3,-4,87,51,23,30.22,30.14,30.05,10,10,10,10,6,,0.00,3,,326
2014-4-16,30,27,24,22,18,4,88,70,36,30.25,30.09,30.00,10,7,1,22,12,30,0.00,7,Snow,77
2014-4-17,45,33,21,19,10,1,81,46,17,30.33,30.29,30.25,10,10,10,13,8,20,0.00,0,,351
2014-4-18,48,37,28,25,20,8,72,51,36,30.37,30.27,30.08,10,10,10,23,9,30,0.00,5,,118
2014-4-19,66,52,39,44,34,22,89,55,25,30.08,29.94,29.88,10,10,9,28,20,40,0.09,3,Rain,195
2014-4-20,71,50,28,37,31,25,96,52,18,30.08,30.01,29.90,10,10,10,10,3,,0.00,0,,181
2014-4-21,54,45,35,38,32,26,78,58,39,30.14,30.03,29.89,10,10,10,25,12,33,0.00,2,,305
2014-4-22,59,42,26,31,27,24,100,58,28,30.19,30.12,30.06,10,10,9,10,4,,0.00,1,,39
2014-4-23,51,40,33,37,31,22,100,77,43,30.07,29.97,29.90,10,7,2,24,10,31,0.60,6,Rain-Snow,122
2014-4-24,39,36,32,38,35,32,100,98,93,29.90,29.76,29.68,10,4,0,13,7,,0.53,8,Fog-Rain-Snow,118
2014-4-25,48,40,32,36,34,29,100,88,48,29.99,29.78,29.66,10,6,0,14,6,18,0.01,6,Fog-Rain-Snow,318
2014-4-26,51,40,30,31,29,26,96,69,39,30.06,30.00,29.94,10,10,10,17,9,26,0.00,2,,103
2014-4-27,39,36,33,34,31,29,93,83,70,29.96,29.83,29.72,10,10,6,24,17,40,0.23,8,Rain,100
2014-4-28,39,37,35,36,34,29,96,91,67,29.90,29.75,29.68,10,6,2,22,18,31,0.85,8,Rain,97
2014-4-29,52,44,37,34,28,21,89,59,38,29.94,29.90,29.83,10,10,10,22,14,43,0.01,6,Rain,39
2014-4-30,42,38,35,36,35,33,97,88,76,29.91,29.88,29.84,10,10,5,21,14,28,0.02,8,Rain,355